KBED/BED METAR and TAF weather

Enter ICAO airport designator
Station Type Date Time Source
KBED METAR 2019/05/23 18:56 UTC NOAA

KBED 231856Z 19012G21KT 10SM SCT045 23/08 A2999 RMK AO2 SLP168 T02280083


Station Type Date Time Source
KBED Decoded METAR 2019/05/23 18:56 UTC NOAA

BEDFORD HANSCOM FIELD, MA, United States (KBED) 42-28N 071-18W 50M
May 23, 2019 - 02:56 PM EDT / 2019.05.23 1856 UTC
Wind: from the S (190 degrees) at 14 MPH (12 KT) gusting to 24 MPH (21 KT):0
Visibility: 10 mile(s):0
Sky conditions: partly cloudy
Temperature: 73.0 F (22.8 C)
Dew Point: 46.9 F (8.3 C)
Relative Humidity: 39%
Pressure (altimeter): 29.99 in. Hg (1015 hPa)
ob: KBED 231856Z 19012G21KT 10SM SCT045 23/08 A2999 RMK AO2 SLP168 T02280083
cycle: 19

Station Type Date Time Source
KBED TAF 2019/05/23 18:39 UTC NOAA

TAF KBED 231738Z 2318/2418 21014G24KT P6SM BKN035
FM240000 19012KT 5SM -RA BR BKN025
FM240400 22010KT 6SM BR VCSH BKN020
FM240500 23010KT P6SM SCT060
FM241500 32020G30KT P6SM BKN050

Example: see airport list